createdAt,value
2022-09-04T00:00:07.010Z,67.78
2022-09-04T00:02:52.148Z,67.87
2022-09-04T00:05:56.935Z,68.02
2022-09-04T00:08:32.374Z,68.17
2022-09-04T00:11:18.934Z,68.15
2022-09-04T00:14:17.768Z,68.03
2022-09-04T00:17:23.383Z,68.29
2022-09-04T00:19:56.320Z,68.58
2022-09-04T00:22:31.532Z,69.40
2022-09-04T00:25:14.802Z,70.57
2022-09-04T00:27:47.668Z,71.82
2022-09-04T00:30:20.506Z,72.60
2022-09-04T00:33:11.933Z,72.76
2022-09-04T00:35:44.857Z,72.83
2022-09-04T00:38:26.727Z,72.84
2022-09-04T00:41:32.348Z,72.96
2022-09-04T00:44:08.142Z,73.01
2022-09-04T00:47:18.188Z,73.06
2022-09-04T00:49:44.786Z,73.53
2022-09-04T00:52:36.810Z,73.29
2022-09-04T00:55:16.072Z,73.37
2022-09-04T00:58:09.333Z,73.13
2022-09-04T01:00:36.652Z,72.87
2022-09-04T01:03:22.134Z,72.76
2022-09-04T01:06:11.057Z,72.62
2022-09-04T01:09:05.769Z,72.38
2022-09-04T01:11:43.586Z,72.16
2022-09-04T01:14:42.540Z,71.86
2022-09-04T01:17:14.979Z,71.62
2022-09-04T01:20:06.401Z,71.54
2022-09-04T01:22:56.483Z,71.48
2022-09-04T01:25:32.128Z,71.29
2022-09-04T01:28:29.931Z,71.32
2022-09-04T01:31:08.105Z,71.26
2022-09-04T01:33:54.894Z,71.14
2022-09-04T01:36:49.990Z,71.17
2022-09-04T01:39:21.178Z,71.40
2022-09-04T01:41:56.829Z,71.56
2022-09-04T01:44:23.633Z,71.93
2022-09-04T01:47:15.593Z,71.99
2022-09-04T01:49:51.889Z,72.69
2022-09-04T01:52:36.787Z,72.91
2022-09-04T01:55:30.409Z,73.27
2022-09-04T01:58:21.561Z,73.46
2022-09-04T02:01:42.446Z,73.85
2022-09-04T02:04:15.073Z,74.30
2022-09-04T02:07:19.126Z,74.48
2022-09-04T02:10:11.909Z,74.55
2022-09-04T02:12:58.348Z,74.80
2022-09-04T02:15:58.533Z,74.62
2022-09-04T02:18:33.063Z,74.76
2022-09-04T02:21:31.581Z,74.88
2022-09-04T02:24:19.220Z,74.92
2022-09-04T02:27:12.886Z,74.85
2022-09-04T02:29:58.070Z,74.95
2022-09-04T02:32:37.936Z,75.09
2022-09-04T02:35:09.906Z,75.20
2022-09-04T02:37:58.283Z,75.40
2022-09-04T02:40:49.857Z,75.52
2022-09-04T02:43:40.752Z,75.72
2022-09-04T02:46:43.368Z,75.53
2022-09-04T02:49:28.063Z,75.89
2022-09-04T02:52:09.726Z,76.30
2022-09-04T02:55:01.292Z,76.38
2022-09-04T02:57:55.186Z,76.59
2022-09-04T03:00:43.803Z,76.68
2022-09-04T03:03:24.206Z,77.09
2022-09-04T03:06:02.371Z,77.30
2022-09-04T03:08:41.484Z,77.26
2022-09-04T03:11:24.303Z,77.18
2022-09-04T03:14:20.229Z,77.15
2022-09-04T03:16:59.632Z,77.21
2022-09-04T03:19:45.267Z,77.10
2022-09-04T03:22:30.907Z,77.19
2022-09-04T03:25:12.771Z,77.11
2022-09-04T03:27:39.323Z,77.46
2022-09-04T03:30:07.890Z,77.45
2022-09-04T03:32:49.736Z,77.43
2022-09-04T03:35:24.361Z,77.78
2022-09-04T03:38:18.344Z,77.83
2022-09-04T03:41:04.450Z,77.87
2022-09-04T03:43:48.991Z,77.85
2022-09-04T03:46:37.129Z,77.78
2022-09-04T03:49:39.061Z,78.07
2022-09-04T03:52:21.771Z,78.15
2022-09-04T03:55:12.537Z,78.13
2022-09-04T03:58:08.807Z,78.27
2022-09-04T04:01:14.235Z,78.57
2022-09-04T04:04:05.504Z,78.63
2022-09-04T04:07:00.714Z,78.73
2022-09-04T04:09:51.188Z,78.74
2022-09-04T04:12:45.705Z,78.88
2022-09-04T04:15:27.903Z,79.00
2022-09-04T04:18:13.461Z,79.15
2022-09-04T04:21:00.732Z,79.53
2022-09-04T04:24:04.497Z,79.77
2022-09-04T04:27:04.307Z,79.91
2022-09-04T04:29:52.365Z,80.01
2022-09-04T04:32:37.434Z,79.97
2022-09-04T04:35:38.514Z,80.00
2022-09-04T04:38:18.666Z,80.06
2022-09-04T04:41:00.284Z,80.43
2022-09-04T04:43:51.447Z,80.73
2022-09-04T04:46:39.336Z,80.62
2022-09-04T04:49:11.966Z,81.03
2022-09-04T04:52:02.496Z,81.06
2022-09-04T04:54:51.377Z,81.42
2022-09-04T04:57:36.000Z,81.49
2022-09-04T05:00:24.000Z,81.66
2022-09-04T05:02:56.591Z,81.74
2022-09-04T05:05:48.176Z,81.71
2022-09-04T05:08:26.971Z,81.80
2022-09-04T05:11:03.266Z,81.77
2022-09-04T05:14:05.272Z,81.84
2022-09-04T05:16:52.194Z,82.00
2022-09-04T05:19:52.456Z,81.82
2022-09-04T05:22:44.785Z,81.85
2022-09-04T05:25:39.266Z,81.79
2022-09-04T05:28:11.666Z,81.65
2022-09-04T05:31:04.984Z,81.80
2022-09-04T05:33:38.625Z,81.72
2022-09-04T05:36:29.805Z,81.71
2022-09-04T05:39:33.625Z,81.90
2022-09-04T05:42:19.000Z,81.80
2022-09-04T05:44:51.699Z,81.99
2022-09-04T05:47:43.631Z,82.03
2022-09-04T05:50:18.494Z,81.94
2022-09-04T05:53:00.146Z,81.92
2022-09-04T05:55:55.155Z,81.72
2022-09-04T05:58:27.428Z,81.54
2022-09-04T06:01:15.104Z,81.36
2022-09-04T06:04:07.797Z,81.03
2022-09-04T06:06:53.920Z,80.52
2022-09-04T06:09:27.667Z,79.83
2022-09-04T06:12:16.123Z,79.29
2022-09-04T06:15:14.055Z,78.82
2022-09-04T06:18:02.637Z,78.44
2022-09-04T06:20:41.345Z,77.94
2022-09-04T06:23:29.852Z,77.33
2022-09-04T06:26:03.359Z,76.84
2022-09-04T06:28:46.185Z,76.31
2022-09-04T06:31:18.898Z,75.56
2022-09-04T06:34:07.125Z,74.87
2022-09-04T06:36:52.682Z,74.27
2022-09-04T06:39:25.290Z,74.09
2022-09-04T06:42:26.686Z,73.04
2022-09-04T06:45:11.518Z,72.64
2022-09-04T06:48:03.670Z,72.58
2022-09-04T06:50:30.286Z,72.66
2022-09-04T06:53:18.944Z,72.38
2022-09-04T06:55:48.284Z,72.51
2022-09-04T06:58:14.784Z,73.65
2022-09-04T07:01:08.177Z,73.54
2022-09-04T07:04:02.436Z,73.57
2022-09-04T07:06:49.244Z,73.45
2022-09-04T07:09:30.581Z,73.50
2022-09-04T07:12:22.041Z,73.32
2022-09-04T07:15:12.380Z,73.33
2022-09-04T07:17:55.731Z,73.09
2022-09-04T07:20:45.131Z,72.59
2022-09-04T07:23:25.098Z,71.49
2022-09-04T07:25:59.795Z,69.55
2022-09-04T07:28:34.684Z,67.71
2022-09-04T07:31:24.653Z,66.17
2022-09-04T07:34:22.963Z,65.17
2022-09-04T07:36:57.986Z,63.91
2022-09-04T07:39:57.154Z,63.03
2022-09-04T07:42:44.502Z,61.50
2022-09-04T07:45:22.528Z,60.53
2022-09-04T07:48:31.182Z,59.96
2022-09-04T07:51:10.696Z,59.46
2022-09-04T07:54:01.211Z,58.54
2022-09-04T07:56:51.703Z,57.36
2022-09-04T07:59:36.433Z,56.10
2022-09-04T08:02:39.913Z,55.50
2022-09-04T08:05:21.589Z,54.31
2022-09-04T08:07:54.047Z,53.68
2022-09-04T08:10:31.547Z,53.39
2022-09-04T08:13:19.357Z,52.58
2022-09-04T08:16:07.784Z,52.27
2022-09-04T08:19:01.410Z,51.45
2022-09-04T08:21:31.200Z,51.59
2022-09-04T08:24:32.255Z,50.86
2022-09-04T08:27:27.156Z,49.51
2022-09-04T08:30:15.067Z,49.64
2022-09-04T08:33:06.768Z,49.44
2022-09-04T08:35:57.701Z,48.35
2022-09-04T08:38:48.977Z,46.57
2022-09-04T08:41:18.438Z,45.99
2022-09-04T08:44:11.690Z,45.74
2022-09-04T08:47:12.143Z,45.13
2022-09-04T08:50:23.839Z,45.37
2022-09-04T08:53:03.177Z,45.05
2022-09-04T08:55:46.999Z,44.32
2022-09-04T08:58:25.505Z,44.46
2022-09-04T09:01:29.598Z,44.16
2022-09-04T09:04:11.981Z,43.02
2022-09-04T09:07:24.974Z,42.34
2022-09-04T09:10:10.571Z,41.91
2022-09-04T09:12:46.222Z,41.51
2022-09-04T09:15:31.494Z,41.42
2022-09-04T09:18:03.356Z,40.70
2022-09-04T09:20:38.988Z,40.57
2022-09-04T09:23:18.145Z,39.95
2022-09-04T09:25:55.023Z,39.17
2022-09-04T09:28:30.546Z,38.85
2022-09-04T09:31:29.154Z,38.71
2022-09-04T09:34:11.479Z,38.74
2022-09-04T09:36:49.629Z,38.26
2022-09-04T09:39:40.924Z,38.80
2022-09-04T09:42:41.451Z,39.43
2022-09-04T09:45:17.523Z,38.31
2022-09-04T09:48:11.496Z,37.39
2022-09-04T09:51:08.724Z,36.65
2022-09-04T09:53:50.680Z,36.29
2022-09-04T09:56:56.270Z,36.05
2022-09-04T09:59:32.329Z,35.49
2022-09-04T10:02:39.572Z,35.46
2022-09-04T10:05:32.366Z,35.84
2022-09-04T10:08:05.202Z,35.45
2022-09-04T10:10:54.219Z,35.49
2022-09-04T10:13:48.560Z,35.32
2022-09-04T10:16:40.149Z,35.60
2022-09-04T10:19:24.908Z,35.72
2022-09-04T10:22:31.096Z,35.24
2022-09-04T10:25:18.689Z,34.66
2022-09-04T10:27:48.349Z,33.38
2022-09-04T10:30:19.963Z,32.94
2022-09-04T10:33:11.951Z,33.28
2022-09-04T10:35:58.166Z,33.00
2022-09-04T10:39:05.408Z,33.38
2022-09-04T10:41:45.237Z,33.02
2022-09-04T10:44:40.384Z,31.99
2022-09-04T10:47:15.705Z,33.65
2022-09-04T10:50:02.422Z,34.61
2022-09-04T10:52:35.097Z,36.12
2022-09-04T10:55:16.513Z,37.24
2022-09-04T10:57:55.320Z,36.62
2022-09-04T11:00:26.528Z,34.39
2022-09-04T11:03:03.462Z,33.40
2022-09-04T11:06:15.817Z,35.24
2022-09-04T11:09:00.673Z,35.04
2022-09-04T11:11:52.802Z,34.89
2022-09-04T11:14:32.039Z,34.11
2022-09-04T11:17:40.315Z,33.63
2022-09-04T11:20:44.979Z,32.65
2022-09-04T11:23:30.074Z,32.88
2022-09-04T11:26:05.934Z,34.59
2022-09-04T11:29:00.616Z,34.14
2022-09-04T11:31:48.452Z,35.43
2022-09-04T11:34:52.654Z,35.39
2022-09-04T11:37:57.781Z,36.03
2022-09-04T11:40:46.130Z,36.63
2022-09-04T11:43:15.563Z,36.65
2022-09-04T11:45:57.517Z,37.53
2022-09-04T11:48:56.514Z,38.13
2022-09-04T11:51:45.946Z,37.43
2022-09-04T11:55:05.103Z,36.96
2022-09-04T11:57:59.792Z,36.14
2022-09-04T12:00:36.399Z,36.39
2022-09-04T12:03:30.810Z,35.43
2022-09-04T12:06:37.408Z,35.18
2022-09-04T12:09:15.340Z,36.29
2022-09-04T12:12:00.990Z,37.16
2022-09-04T12:14:57.960Z,36.66
2022-09-04T12:17:49.699Z,37.74
2022-09-04T12:20:35.065Z,36.73
2022-09-04T12:23:31.481Z,36.45
2022-09-04T12:26:21.571Z,36.74
2022-09-04T12:28:59.979Z,37.50
2022-09-04T12:32:00.611Z,35.30
2022-09-04T12:34:41.680Z,34.43
2022-09-04T12:37:14.421Z,33.37
2022-09-04T12:39:41.815Z,32.53
2022-09-04T12:42:14.375Z,30.62
2022-09-04T12:44:44.027Z,31.12
2022-09-04T12:47:33.216Z,31.45
2022-09-04T12:50:22.675Z,31.05
2022-09-04T12:52:52.655Z,30.14
2022-09-04T12:55:41.627Z,30.54
2022-09-04T12:58:33.431Z,30.09
2022-09-04T13:01:10.713Z,29.54
2022-09-04T13:03:46.717Z,29.23
2022-09-04T13:06:20.873Z,29.52
2022-09-04T13:09:05.140Z,29.64
2022-09-04T13:11:52.410Z,29.37
2022-09-04T13:14:31.055Z,29.22
2022-09-04T13:17:16.860Z,29.75
2022-09-04T13:20:19.969Z,29.74
2022-09-04T13:23:19.141Z,29.65
2022-09-04T13:25:55.789Z,29.77
2022-09-04T13:28:38.133Z,29.06
2022-09-04T13:31:16.135Z,29.31
2022-09-04T13:34:45.243Z,29.31
2022-09-04T13:37:21.222Z,29.44
2022-09-04T13:40:03.177Z,29.65
2022-09-04T13:42:51.790Z,29.37
2022-09-04T13:45:26.759Z,29.86
2022-09-04T13:48:07.242Z,30.17
2022-09-04T13:50:41.936Z,30.40
2022-09-04T13:53:26.011Z,30.33
2022-09-04T13:55:57.384Z,30.40
2022-09-04T13:58:57.850Z,31.02
2022-09-04T14:01:27.974Z,30.88
2022-09-04T14:03:57.665Z,31.05
2022-09-04T14:06:26.877Z,31.16
2022-09-04T14:09:04.586Z,30.39
2022-09-04T14:11:45.415Z,30.45
2022-09-04T14:14:19.932Z,30.37
2022-09-04T14:16:49.481Z,30.93
2022-09-04T14:19:47.523Z,30.86
2022-09-04T14:22:29.432Z,31.08
2022-09-04T14:25:21.331Z,32.04
2022-09-04T14:28:13.247Z,31.78
2022-09-04T14:30:53.979Z,31.54
2022-09-04T14:33:45.462Z,31.32
2022-09-04T14:36:24.699Z,31.09
2022-09-04T14:39:14.678Z,30.90
2022-09-04T14:42:00.040Z,31.75
2022-09-04T14:44:45.277Z,30.37
2022-09-04T14:47:26.902Z,30.46
2022-09-04T14:50:01.286Z,30.14
2022-09-04T14:52:42.134Z,29.63
2022-09-04T14:55:35.258Z,28.95
2022-09-04T14:58:10.693Z,26.62
2022-09-04T15:01:02.393Z,26.34
2022-09-04T15:03:37.282Z,25.87
2022-09-04T15:06:16.280Z,25.95
2022-09-04T15:08:44.411Z,24.45
2022-09-04T15:11:31.113Z,24.43
2022-09-04T15:14:07.839Z,22.78
2022-09-04T15:16:46.624Z,22.89
2022-09-04T15:19:49.894Z,22.87
2022-09-04T15:22:31.006Z,24.27
2022-09-04T15:24:58.459Z,24.00
2022-09-04T15:27:37.737Z,22.93
2022-09-04T15:30:07.020Z,23.11
2022-09-04T15:32:40.065Z,23.55
2022-09-04T15:35:24.044Z,24.46
2022-09-04T15:38:07.787Z,24.52
2022-09-04T15:41:12.692Z,26.04
2022-09-04T15:44:15.662Z,26.73
2022-09-04T15:47:00.700Z,25.97
2022-09-04T15:49:43.989Z,26.26
2022-09-04T15:52:41.257Z,26.60
2022-09-04T15:55:26.806Z,27.08
2022-09-04T15:58:05.441Z,27.36
2022-09-04T16:00:37.120Z,28.45
2022-09-04T16:03:14.972Z,28.94
2022-09-04T16:05:51.317Z,28.55
2022-09-04T16:08:41.186Z,28.67
2022-09-04T16:11:31.862Z,28.88
2022-09-04T16:14:05.887Z,29.24
2022-09-04T16:16:54.373Z,29.88
2022-09-04T16:19:55.521Z,30.83
2022-09-04T16:22:42.673Z,30.83
2022-09-04T16:25:19.204Z,30.79
2022-09-04T16:28:08.054Z,31.23
2022-09-04T16:30:41.676Z,31.98
2022-09-04T16:33:27.794Z,32.14
2022-09-04T16:36:21.258Z,32.40
2022-09-04T16:38:57.299Z,32.73
2022-09-04T16:41:32.433Z,33.40
2022-09-04T16:44:35.154Z,33.66
2022-09-04T16:47:43.888Z,34.15
2022-09-04T16:50:22.128Z,33.88
2022-09-04T16:53:12.474Z,34.26
2022-09-04T16:55:47.087Z,35.27
2022-09-04T16:58:35.772Z,35.38
2022-09-04T17:01:15.656Z,34.36
2022-09-04T17:04:13.475Z,34.38
2022-09-04T17:07:21.609Z,34.10
2022-09-04T17:09:57.300Z,34.92
2022-09-04T17:12:52.677Z,36.92
2022-09-04T17:15:58.715Z,36.17
2022-09-04T17:18:28.851Z,37.33
2022-09-04T17:25:05.688Z,36.14
2022-09-04T17:29:03.950Z,36.52
2022-09-04T17:29:12.103Z,36.55
2022-09-04T17:30:25.584Z,36.74
2022-09-04T17:38:00.952Z,36.95
2022-09-04T17:40:35.642Z,37.61
2022-09-04T17:40:48.846Z,37.64
2022-09-04T17:42:14.230Z,38.47
2022-09-04T17:45:10.437Z,38.43
2022-09-04T17:47:42.688Z,38.27
2022-09-04T17:50:17.218Z,38.60
2022-09-04T17:53:14.546Z,39.40
2022-09-04T17:56:10.530Z,40.08
2022-09-04T17:58:46.492Z,40.87
2022-09-04T18:01:25.220Z,41.58
2022-09-04T18:04:21.717Z,41.54
2022-09-04T18:06:57.066Z,41.05
2022-09-04T18:09:50.300Z,42.06
2022-09-04T18:12:31.304Z,42.08
2022-09-04T18:15:18.306Z,42.00
2022-09-04T18:18:24.645Z,42.65
2022-09-04T18:20:57.583Z,43.26
2022-09-04T18:23:31.337Z,43.06
2022-09-04T18:26:20.196Z,43.66
2022-09-04T18:28:58.972Z,44.23
2022-09-04T18:37:18.498Z,43.95
2022-09-04T18:37:22.648Z,44.48
2022-09-04T18:37:58.722Z,44.22
2022-09-04T18:43:35.964Z,44.49
2022-09-04T18:50:22.703Z,44.57
2022-09-04T18:50:28.629Z,44.81
2022-09-04T18:50:29.498Z,44.61
2022-09-04T18:52:25.341Z,44.82
2022-09-04T18:55:02.327Z,45.22
2022-09-04T18:57:49.200Z,45.01
2022-09-04T19:00:33.280Z,45.35
2022-09-04T19:03:14.624Z,45.81
2022-09-04T19:05:55.579Z,46.05
2022-09-04T19:08:35.271Z,46.22
2022-09-04T19:11:17.486Z,46.49
2022-09-04T19:13:57.091Z,46.72
2022-09-04T19:16:46.404Z,46.83
2022-09-04T19:19:22.227Z,47.22
2022-09-04T19:21:58.309Z,47.49
2022-09-04T19:24:46.921Z,47.82
2022-09-04T19:27:37.585Z,48.37
2022-09-04T19:30:23.604Z,48.40
2022-09-04T19:33:00.454Z,48.46
2022-09-04T19:35:32.175Z,48.63
2022-09-04T19:42:25.559Z,48.93
2022-09-04T19:46:05.152Z,49.09
2022-09-04T19:46:07.886Z,49.28
2022-09-04T19:47:29.009Z,49.84
2022-09-04T19:53:22.502Z,50.37
2022-09-04T19:53:24.173Z,50.85
2022-09-04T19:56:05.908Z,51.33
2022-09-04T19:58:52.497Z,51.70
2022-09-04T20:01:28.968Z,52.11
2022-09-04T20:04:09.377Z,52.26
2022-09-04T20:06:45.667Z,52.26
2022-09-04T20:09:20.316Z,52.33
2022-09-04T20:11:52.552Z,52.36
2022-09-04T20:14:35.880Z,52.10
2022-09-04T20:17:27.456Z,52.31
2022-09-04T20:19:58.918Z,52.04
2022-09-04T20:22:49.496Z,51.86
2022-09-04T20:25:23.909Z,51.97
2022-09-04T20:28:38.565Z,51.76
2022-09-04T20:31:36.345Z,51.75
2022-09-04T20:34:19.160Z,51.84
2022-09-04T20:36:51.618Z,51.77
2022-09-04T20:39:54.253Z,51.62
2022-09-04T20:42:46.582Z,51.47
2022-09-04T20:48:53.726Z,51.45
2022-09-04T20:52:54.180Z,51.51
2022-09-04T20:52:54.575Z,51.80
2022-09-04T20:54:28.178Z,52.05
2022-09-04T21:00:41.993Z,52.03
2022-09-04T21:03:06.794Z,51.89
2022-09-04T21:03:27.908Z,52.01
2022-09-04T21:06:20.756Z,52.28
2022-09-04T21:08:59.362Z,52.39
2022-09-04T21:11:39.246Z,52.44
2022-09-04T21:14:19.941Z,52.35
2022-09-04T21:17:34.208Z,52.56
2022-09-04T21:20:34.041Z,52.66
2022-09-04T21:23:22.724Z,52.83
2022-09-04T21:25:58.730Z,53.27
2022-09-04T21:28:44.102Z,53.13
2022-09-04T21:31:19.727Z,53.29
2022-09-04T21:34:08.212Z,53.31
2022-09-04T21:37:05.628Z,53.11
2022-09-04T21:40:24.405Z,52.98
2022-09-04T21:43:10.033Z,53.18
2022-09-04T21:46:12.810Z,53.43
2022-09-04T21:48:57.734Z,53.68
2022-09-04T21:51:52.807Z,54.10
2022-09-04T21:58:08.054Z,55.25
2022-09-04T22:02:37.030Z,56.19
2022-09-04T22:02:40.788Z,56.61
2022-09-04T22:04:28.913Z,56.75
2022-09-04T22:09:33.059Z,56.93
2022-09-04T22:13:32.291Z,56.96
2022-09-04T22:13:37.743Z,56.98
2022-09-04T22:16:03.206Z,57.00
2022-09-04T22:19:05.684Z,57.06
2022-09-04T22:21:52.090Z,57.20
2022-09-04T22:24:46.961Z,57.26
2022-09-04T22:27:18.643Z,57.35
2022-09-04T22:29:48.440Z,57.19
2022-09-04T22:32:43.890Z,57.20
2022-09-04T22:35:41.616Z,57.20
2022-09-04T22:38:32.552Z,57.50
2022-09-04T22:41:01.720Z,57.67
2022-09-04T22:43:46.733Z,57.78
2022-09-04T22:46:14.128Z,58.30
2022-09-04T22:49:11.028Z,58.34
2022-09-04T22:51:58.464Z,58.53
2022-09-04T22:54:46.016Z,58.99
2022-09-04T22:57:22.133Z,59.41
2022-09-04T22:59:51.657Z,59.74
2022-09-04T23:03:08.325Z,60.45
2022-09-04T23:05:48.999Z,61.23
2022-09-04T23:13:49.009Z,61.44
2022-09-04T23:13:51.941Z,62.24
2022-09-04T23:14:53.615Z,62.64
2022-09-04T23:19:31.316Z,62.97
2022-09-04T23:26:34.728Z,63.16
2022-09-04T23:26:43.775Z,62.80
2022-09-04T23:27:28.446Z,62.58
2022-09-04T23:30:08.154Z,62.45
2022-09-04T23:32:56.490Z,62.59
2022-09-04T23:36:01.423Z,61.89
2022-09-04T23:38:43.664Z,61.53
2022-09-04T23:41:52.922Z,61.27
2022-09-04T23:44:47.778Z,61.30
2022-09-04T23:47:48.214Z,61.43
2022-09-04T23:50:46.276Z,62.09
2022-09-04T23:53:29.417Z,62.54
2022-09-04T23:56:24.686Z,62.67
2022-09-04T23:59:29.232Z,62.32
